Time;durP1;ratioP1;P1;durP2;ratioP2;P2;SDS_P1;SDS_P2;PMS_P1;PMS_P2;Temp;Humidity;BMP_temperature;BMP_pressure;BME280_temperature;BME280_humidity;BME280_pressure;Samples;Min_cycle;Max_cycle;Signal;HPM_P1;HPM_P2
2023/05/02 00:01:53;;;;;;;;;;;18.40;75.80;;;;;;5101551;28;19911;-89
2023/05/02 00:04:19;;;;;;;;;;;18.40;75.80;;;;;;5101094;28;20225;-89
2023/05/02 00:06:45;;;;;;;;;;;18.40;75.80;;;;;;5101920;28;19908;-88
2023/05/02 00:09:11;;;;;;;;;;;18.40;75.80;;;;;;5100560;28;19907;-89
2023/05/02 00:11:36;;;;;;;;;;;18.40;75.80;;;;;;5101805;28;19919;-89
2023/05/02 00:14:02;;;;;;;;;;;18.30;75.70;;;;;;5101008;28;19912;-89
2023/05/02 00:16:27;;;;;;;;;;;18.30;75.70;;;;;;5101092;28;19964;-88
2023/05/02 00:18:53;;;;;;;;;;;18.30;75.70;;;;;;5119018;28;19915;-88
2023/05/02 00:21:19;;;;;;;;;;;18.30;75.70;;;;;;5101773;28;20012;-88
2023/05/02 00:23:44;;;;;;;;;;;18.30;75.70;;;;;;5101100;28;20227;-89
2023/05/02 00:26:10;;;;;;;;;;;18.30;75.80;;;;;;5101719;28;20296;-89
2023/05/02 00:28:40;;;;;;;;;;;18.30;75.80;;;;;;5101805;28;20405;-89
2023/05/02 00:31:06;;;;;;;;;;;18.30;75.80;;;;;;5101763;28;19908;-89
2023/05/02 00:33:39;;;;;;;;;;;18.30;75.90;;;;;;5101356;28;20080;-89
2023/05/02 00:36:26;;;;;;;;;;;18.30;76.00;;;;;;5101353;28;19912;-89
2023/05/02 00:38:52;;;;;;;;;;;18.30;76.00;;;;;;5101576;28;19912;-89
2023/05/02 00:41:17;;;;;;;;;;;18.20;76.00;;;;;;5101468;28;19916;-89
2023/05/02 00:43:43;;;;;;;;;;;18.20;76.00;;;;;;5101691;28;19911;-89
2023/05/02 00:46:18;;;;;;;;;;;18.20;76.00;;;;;;5101491;28;19912;-88
2023/05/02 00:48:44;;;;;;;;;;;18.20;76.00;;;;;;5101844;28;19965;-89
2023/05/02 00:51:12;;;;;;;;;;;18.20;76.00;;;;;;5102269;28;19912;-88
2023/05/02 00:53:44;;;;;;;;;;;18.20;76.10;;;;;;5104208;28;19907;-89
2023/05/02 00:56:17;;;;;;;;;;;18.20;76.10;;;;;;5105201;28;19962;-89
2023/05/02 00:58:43;;;;;;;;;;;18.20;76.10;;;;;;5104583;28;19916;-88
2023/05/02 01:01:28;;;;;;;;;;;18.20;76.20;;;;;;5122001;28;19920;-89
2023/05/02 01:04:08;;;;;;;;;;;18.20;76.10;;;;;;5122534;28;19912;-89
2023/05/02 01:06:42;;;;;;;;;;;18.20;76.10;;;;;;5105674;28;20254;-89
2023/05/02 01:09:34;;;;;;;;;;;18.20;76.10;;;;;;5105405;28;19907;-89
2023/05/02 01:12:06;;;;;;;;;;;18.20;76.10;;;;;;5101577;28;19911;-88
2023/05/02 01:14:42;;;;;;;;;;;18.20;76.10;;;;;;5104407;28;20232;-88
2023/05/02 01:17:10;;;;;;;;;;;18.20;76.10;;;;;;5105013;28;19908;-88
2023/05/02 01:19:38;;;;;;;;;;;18.20;76.10;;;;;;5104790;28;19972;-88
2023/05/02 01:22:06;;;;;;;;;;;18.20;76.70;;;;;;5104066;28;20237;-89
2023/05/02 01:24:36;;;;;;;;;;;18.10;76.00;;;;;;5105302;28;19915;-89
2023/05/02 01:27:20;;;;;;;;;;;18.20;76.10;;;;;;5104322;28;19914;-89
2023/05/02 01:29:47;;;;;;;;;;;18.10;76.00;;;;;;5104523;28;19961;-89
2023/05/02 01:32:14;;;;;;;;;;;18.10;76.00;;;;;;5103702;28;19998;-89
2023/05/02 01:34:40;;;;;;;;;;;18.10;76.00;;;;;;5103735;28;19908;-88
2023/05/02 01:37:25;;;;;;;;;;;18.10;76.00;;;;;;5121911;28;19994;-89
2023/05/02 01:39:51;;;;;;;;;;;18.20;76.00;;;;;;5103339;28;20011;-89
2023/05/02 01:42:16;;;;;;;;;;;18.10;76.00;;;;;;5104210;28;19994;-89
2023/05/02 01:44:56;;;;;;;;;;;18.10;76.00;;;;;;5103576;28;20350;-89
2023/05/02 01:47:29;;;;;;;;;;;18.10;76.00;;;;;;5103997;28;19907;-89
2023/05/02 01:49:54;;;;;;;;;;;18.10;76.00;;;;;;5103255;28;20285;-89
2023/05/02 01:52:21;;;;;;;;;;;18.10;76.00;;;;;;5103984;28;19973;-89
2023/05/02 01:54:48;;;;;;;;;;;18.10;75.90;;;;;;5122083;27;19912;-89
2023/05/02 01:57:17;;;;;;;;;;;18.10;76.00;;;;;;5083245;28;19922;-89
2023/05/02 01:59:43;;;;;;;;;;;18.10;76.00;;;;;;5083564;28;19924;-89
2023/05/02 02:02:10;;;;;;;;;;;18.10;76.00;;;;;;5100708;28;19938;-89
2023/05/02 02:04:36;;;;;;;;;;;18.10;76.00;;;;;;5094157;28;20015;-88
2023/05/02 02:07:05;;;;;;;;;;;18.10;75.90;;;;;;5104050;28;20327;-88
2023/05/02 02:09:30;;;;;;;;;;;18.10;75.90;;;;;;5104485;28;20405;-88
2023/05/02 02:11:59;;;;;;;;;;;18.10;75.90;;;;;;5104074;28;19918;-89
2023/05/02 02:14:26;;;;;;;;;;;18.10;75.90;;;;;;5104508;28;20020;-88
2023/05/02 02:16:56;;;;;;;;;;;18.10;75.90;;;;;;5103510;28;19947;-88
2023/05/02 02:19:22;;;;;;;;;;;18.10;75.80;;;;;;5103825;28;19907;-88
2023/05/02 02:21:47;;;;;;;;;;;18.10;75.80;;;;;;5103858;28;20300;-89
2023/05/02 02:24:15;;;;;;;;;;;18.10;75.80;;;;;;5104211;28;19912;-89
2023/05/02 02:26:41;;;;;;;;;;;18.10;75.80;;;;;;5121607;28;20052;-88
2023/05/02 02:29:06;;;;;;;;;;;18.10;75.80;;;;;;5103520;28;19955;-89
2023/05/02 02:31:34;;;;;;;;;;;18.00;75.70;;;;;;5104032;28;19943;-89
2023/05/02 02:34:00;;;;;;;;;;;18.10;75.80;;;;;;5103106;28;19911;-89
2023/05/02 02:36:44;;;;;;;;;;;18.00;75.70;;;;;;5120637;28;19908;-89
2023/05/02 02:39:10;;;;;;;;;;;18.00;75.70;;;;;;5103108;28;19915;-89
2023/05/02 02:41:39;;;;;;;;;;;18.00;75.70;;;;;;5102897;28;19916;-89
2023/05/02 02:44:11;;;;;;;;;;;18.00;75.70;;;;;;5103698;28;19908;-89
2023/05/02 02:46:55;;;;;;;;;;;18.00;75.70;;;;;;5103039;28;19912;-89
2023/05/02 02:49:36;;;;;;;;;;;18.00;75.70;;;;;;5102625;28;20269;-88
2023/05/02 02:52:10;;;;;;;;;;;18.00;75.70;;;;;;5102646;28;19941;-89
2023/05/02 02:54:58;;;;;;;;;;;18.00;75.70;;;;;;5102315;28;19911;-89
2023/05/02 02:57:24;;;;;;;;;;;18.00;75.70;;;;;;5102793;28;19963;-89
2023/05/02 03:00:10;;;;;;;;;;;18.00;75.70;;;;;;5102110;28;20320;-89
2023/05/02 03:02:37;;;;;;;;;;;18.00;75.70;;;;;;5103088;28;19916;-89
2023/05/02 03:05:08;;;;;;;;;;;18.00;75.70;;;;;;5102862;28;19908;-88
2023/05/02 03:07:33;;;;;;;;;;;18.00;75.70;;;;;;5102713;28;19922;-88
2023/05/02 03:10:17;;;;;;;;;;;18.00;75.70;;;;;;5102936;28;20464;-88
2023/05/02 03:12:43;;;;;;;;;;;18.00;75.70;;;;;;5100547;28;19907;-88
2023/05/02 03:15:12;;;;;;;;;;;18.00;75.70;;;;;;5102696;28;20163;-88
2023/05/02 03:17:37;;;;;;;;;;;18.00;75.70;;;;;;5102585;28;19918;-89
2023/05/02 03:20:10;;;;;;;;;;;18.00;75.70;;;;;;5102667;28;19994;-88
2023/05/02 03:22:35;;;;;;;;;;;18.00;75.70;;;;;;5102517;28;19951;-89
2023/05/02 03:25:01;;;;;;;;;;;17.90;75.60;;;;;;5102984;28;19908;-88
2023/05/02 03:27:27;;;;;;;;;;;18.00;75.70;;;;;;5102557;28;20434;-88
2023/05/02 03:30:11;;;;;;;;;;;18.00;76.30;;;;;;5102374;28;19908;-88
2023/05/02 03:32:36;;;;;;;;;;;17.90;75.70;;;;;;5102449;28;19912;-88
2023/05/02 03:35:02;;;;;;;;;;;17.90;75.70;;;;;;5102479;28;19921;-89
2023/05/02 03:37:28;;;;;;;;;;;17.90;75.80;;;;;;5102185;28;19918;-90
2023/05/02 03:39:55;;;;;;;;;;;17.90;75.80;;;;;;5102432;28;19908;-89
2023/05/02 03:42:20;;;;;;;;;;;17.90;75.80;;;;;;5135836;27;19923;-89
2023/05/02 03:44:46;;;;;;;;;;;17.90;75.90;;;;;;5135783;27;19907;-89
2023/05/02 03:47:12;;;;;;;;;;;17.90;75.90;;;;;;5101123;28;20511;-89
2023/05/02 03:49:39;;;;;;;;;;;17.90;76.00;;;;;;5100958;28;20077;-88
2023/05/02 03:52:07;;;;;;;;;;;17.90;76.00;;;;;;5099354;28;20457;-88
2023/05/02 03:54:32;;;;;;;;;;;17.90;76.00;;;;;;5101489;28;20278;-88
2023/05/02 03:56:58;;;;;;;;;;;17.90;76.00;;;;;;5101279;28;19907;-88
2023/05/02 03:59:24;;;;;;;;;;;17.90;76.00;;;;;;5101038;28;19974;-88
2023/05/02 04:01:49;;;;;;;;;;;17.90;76.10;;;;;;5101387;28;19923;-88
2023/05/02 04:04:15;;;;;;;;;;;17.90;76.10;;;;;;5101462;28;19914;-89
2023/05/02 04:06:40;;;;;;;;;;;17.90;76.10;;;;;;5101307;28;20212;-89
2023/05/02 04:09:06;;;;;;;;;;;17.80;76.00;;;;;;5135756;27;19915;-89
2023/05/02 04:11:32;;;;;;;;;;;17.80;76.10;;;;;;5100791;28;19923;-89
2023/05/02 04:13:57;;;;;;;;;;;17.80;76.10;;;;;;5100894;28;19916;-89
2023/05/02 04:16:23;;;;;;;;;;;17.80;76.10;;;;;;5117610;28;19908;-88
2023/05/02 04:18:49;;;;;;;;;;;17.80;76.10;;;;;;5100099;28;19919;-89
2023/05/02 04:21:15;;;;;;;;;;;17.90;76.20;;;;;;5116461;28;19916;-88
2023/05/02 04:23:41;;;;;;;;;;;17.80;76.20;;;;;;5094457;28;19922;-90
2023/05/02 04:26:06;;;;;;;;;;;17.80;76.20;;;;;;5092608;28;19972;-89
2023/05/02 04:28:33;;;;;;;;;;;17.80;76.20;;;;;;5096248;28;19919;-88
2023/05/02 04:30:59;;;;;;;;;;;17.80;76.30;;;;;;5116447;28;19908;-89
2023/05/02 04:33:25;;;;;;;;;;;17.80;76.30;;;;;;5118883;28;19913;-88
2023/05/02 04:35:51;;;;;;;;;;;17.80;76.40;;;;;;5116468;28;19911;-88
2023/05/02 04:38:17;;;;;;;;;;;17.90;76.30;;;;;;5114992;28;19907;-89
2023/05/02 04:40:43;;;;;;;;;;;17.90;76.40;;;;;;5115480;28;19923;-88
2023/05/02 04:43:08;;;;;;;;;;;17.80;76.30;;;;;;5133728;28;20265;-89
2023/05/02 04:45:35;;;;;;;;;;;17.80;76.30;;;;;;5116124;28;19907;-88
2023/05/02 04:48:01;;;;;;;;;;;17.80;76.30;;;;;;5114650;28;19935;-88
2023/05/02 04:50:27;;;;;;;;;;;17.80;76.30;;;;;;5114920;28;20364;-88
2023/05/02 04:52:53;;;;;;;;;;;17.80;76.30;;;;;;5115109;28;19915;-88
2023/05/02 04:55:18;;;;;;;;;;;17.80;76.40;;;;;;5115431;28;19907;-88
2023/05/02 04:57:44;;;;;;;;;;;17.80;76.40;;;;;;5114251;28;20044;-88
2023/05/02 05:03:13;;;;;;;;;;;17.80;76.30;;;;;;5130001;28;20396;-88
2023/05/02 05:05:39;;;;;;;;;;;17.80;76.40;;;;;;5111798;28;19911;-89
2023/05/02 05:08:04;;;;;;;;;;;17.80;76.40;;;;;;5111667;28;19912;-89
2023/05/02 05:10:30;;;;;;;;;;;17.80;76.40;;;;;;5110266;28;20168;-89
2023/05/02 05:12:55;;;;;;;;;;;17.80;76.40;;;;;;5114013;28;19908;-88
2023/05/02 05:15:22;;;;;;;;;;;17.80;76.40;;;;;;5130071;28;19972;-88
2023/05/02 05:17:48;;;;;;;;;;;17.80;76.40;;;;;;5109800;28;19917;-88
2023/05/02 05:20:13;;;;;;;;;;;17.80;76.40;;;;;;5110868;28;20022;-88
2023/05/02 05:22:40;;;;;;;;;;;17.80;76.40;;;;;;5109534;28;19911;-89
2023/05/02 05:25:06;;;;;;;;;;;17.80;76.40;;;;;;5108269;28;20114;-89
2023/05/02 05:27:32;;;;;;;;;;;17.80;76.40;;;;;;5124761;28;20107;-89
2023/05/02 05:29:58;;;;;;;;;;;17.80;76.40;;;;;;5107307;28;19912;-89
2023/05/02 05:32:24;;;;;;;;;;;17.80;76.40;;;;;;5127140;28;19914;-89
2023/05/02 05:34:50;;;;;;;;;;;17.80;76.40;;;;;;5107598;28;19998;-89
2023/05/02 05:37:16;;;;;;;;;;;17.80;76.40;;;;;;5108943;27;19972;-89
2023/05/02 05:39:42;;;;;;;;;;;17.80;76.40;;;;;;5113389;27;19907;-89
2023/05/02 05:42:08;;;;;;;;;;;17.80;76.40;;;;;;5112714;27;19911;-89
2023/05/02 05:44:34;;;;;;;;;;;17.80;76.50;;;;;;5111043;27;20234;-89
2023/05/02 05:47:00;;;;;;;;;;;17.80;76.50;;;;;;5113497;27;19915;-87
2023/05/02 05:49:26;;;;;;;;;;;17.80;76.50;;;;;;5112948;27;19908;-89
2023/05/02 05:51:51;;;;;;;;;;;17.80;76.40;;;;;;5112279;27;19943;-88
2023/05/02 05:54:17;;;;;;;;;;;17.80;76.40;;;;;;5113232;27;19968;-88
2023/05/02 05:56:43;;;;;;;;;;;17.80;76.40;;;;;;5111100;27;19947;-87
2023/05/02 05:59:09;;;;;;;;;;;17.80;76.40;;;;;;5107207;27;20300;-87
2023/05/02 06:01:34;;;;;;;;;;;17.80;76.40;;;;;;5114785;27;20055;-87
2023/05/02 06:04:01;;;;;;;;;;;17.80;76.40;;;;;;5108334;27;20114;-86
2023/05/02 06:06:28;;;;;;;;;;;17.80;76.40;;;;;;5107327;27;20183;-86
2023/05/02 06:08:53;;;;;;;;;;;17.80;76.30;;;;;;5106550;27;19907;-86
2023/05/02 06:11:19;;;;;;;;;;;17.80;76.40;;;;;;5106327;27;19919;-86
2023/05/02 06:13:48;;;;;;;;;;;17.80;76.40;;;;;;5108754;27;19907;-86
2023/05/02 06:16:13;;;;;;;;;;;17.80;76.40;;;;;;5111584;27;20002;-86
2023/05/02 06:18:39;;;;;;;;;;;17.80;76.40;;;;;;5096903;27;20067;-86
2023/05/02 06:21:05;;;;;;;;;;;17.80;76.40;;;;;;5130523;27;19919;-86
2023/05/02 06:23:31;;;;;;;;;;;17.80;76.50;;;;;;5126983;27;20575;-86
2023/05/02 06:25:59;;;;;;;;;;;17.80;76.60;;;;;;5109716;27;20006;-86
2023/05/02 06:28:25;;;;;;;;;;;17.80;76.60;;;;;;5129140;27;19934;-86
2023/05/02 06:31:01;;;;;;;;;;;17.80;76.70;;;;;;5109282;27;20260;-86
2023/05/02 06:33:29;;;;;;;;;;;17.80;76.70;;;;;;5110171;27;20159;-86
2023/05/02 06:35:55;;;;;;;;;;;17.80;76.80;;;;;;5109276;27;19954;-86
2023/05/02 06:38:20;;;;;;;;;;;17.80;76.60;;;;;;5110080;27;19956;-86
2023/05/02 06:40:46;;;;;;;;;;;17.80;76.50;;;;;;5111375;27;19908;-86
2023/05/02 06:43:12;;;;;;;;;;;17.80;76.50;;;;;;5130734;27;19911;-86
2023/05/02 06:45:38;;;;;;;;;;;17.80;76.50;;;;;;5111513;27;20272;-86
2023/05/02 06:48:04;;;;;;;;;;;17.80;76.60;;;;;;5110508;27;20166;-86
2023/05/02 06:50:29;;;;;;;;;;;17.80;76.50;;;;;;5110239;27;19907;-86
2023/05/02 06:52:55;;;;;;;;;;;17.90;76.70;;;;;;5108738;27;20179;-86
2023/05/02 06:55:21;;;;;;;;;;;17.90;76.70;;;;;;5126450;27;20006;-86
2023/05/02 06:57:52;;;;;;;;;;;17.90;76.70;;;;;;5109110;27;19950;-86
2023/05/02 07:00:18;;;;;;;;;;;17.90;76.90;;;;;;5108616;27;19929;-86
2023/05/02 07:02:48;;;;;;;;;;;17.90;76.90;;;;;;5109086;27;19919;-86
2023/05/02 07:05:16;;;;;;;;;;;18.00;77.10;;;;;;5108887;27;20153;-86
2023/05/02 07:07:43;;;;;;;;;;;18.00;76.90;;;;;;5110035;27;19915;-86
2023/05/02 07:10:10;;;;;;;;;;;18.00;76.70;;;;;;5111104;27;19908;-86
2023/05/02 07:12:35;;;;;;;;;;;18.10;76.70;;;;;;5111698;27;19964;-86
2023/05/02 07:15:01;;;;;;;;;;;18.10;76.60;;;;;;5110338;27;19911;-86
2023/05/02 07:17:27;;;;;;;;;;;18.10;76.70;;;;;;5128431;27;20286;-86
2023/05/02 07:19:52;;;;;;;;;;;18.10;76.70;;;;;;5109913;27;20159;-86
2023/05/02 07:22:20;;;;;;;;;;;18.10;76.90;;;;;;5105955;27;19961;-85
2023/05/02 07:24:46;;;;;;;;;;;18.10;76.60;;;;;;5109214;27;20199;-85
2023/05/02 07:27:12;;;;;;;;;;;18.10;76.80;;;;;;5130216;27;19907;-85
2023/05/02 07:29:38;;;;;;;;;;;18.10;76.70;;;;;;5110444;27;19918;-86
2023/05/02 07:32:04;;;;;;;;;;;18.10;76.90;;;;;;5109565;27;19907;-86
2023/05/02 07:34:29;;;;;;;;;;;18.00;76.80;;;;;;5107409;27;19915;-86
2023/05/02 07:36:55;;;;;;;;;;;18.00;76.80;;;;;;5110187;27;19908;-86
2023/05/02 07:39:22;;;;;;;;;;;18.00;77.10;;;;;;5107510;27;19931;-86
2023/05/02 07:41:51;;;;;;;;;;;18.00;77.10;;;;;;5108170;27;19912;-86
2023/05/02 07:44:16;;;;;;;;;;;18.00;77.50;;;;;;5108170;27;19907;-86
2023/05/02 07:46:42;;;;;;;;;;;18.00;77.30;;;;;;5108399;27;19911;-86
2023/05/02 07:49:07;;;;;;;;;;;18.00;77.30;;;;;;5108983;27;19915;-86
2023/05/02 07:51:33;;;;;;;;;;;18.00;77.30;;;;;;5109047;27;19915;-86
2023/05/02 07:54:00;;;;;;;;;;;18.00;77.40;;;;;;5109989;27;19968;-85
2023/05/02 07:56:25;;;;;;;;;;;18.00;77.20;;;;;;5108413;27;20257;-86
2023/05/02 07:58:51;;;;;;;;;;;18.00;77.30;;;;;;5107288;27;19927;-85
2023/05/02 08:01:17;;;;;;;;;;;18.00;77.20;;;;;;5106659;27;20143;-85
2023/05/02 08:03:43;;;;;;;;;;;18.00;77.20;;;;;;5105949;27;19928;-85
2023/05/02 08:06:09;;;;;;;;;;;18.00;77.20;;;;;;5127366;27;20010;-86
2023/05/02 08:08:35;;;;;;;;;;;18.00;77.20;;;;;;5127628;27;20014;-86
2023/05/02 08:11:00;;;;;;;;;;;18.00;77.30;;;;;;5108356;27;19915;-86
2023/05/02 08:13:26;;;;;;;;;;;17.90;77.30;;;;;;5127282;27;19907;-85
2023/05/02 08:15:56;;;;;;;;;;;17.90;77.40;;;;;;5110356;28;19918;-85
2023/05/02 08:18:28;;;;;;;;;;;17.90;77.40;;;;;;5129107;27;19908;-86
2023/05/02 08:20:59;;;;;;;;;;;17.90;77.50;;;;;;5128881;27;19922;-85
2023/05/02 08:23:24;;;;;;;;;;;17.90;77.50;;;;;;5108759;28;20196;-85
2023/05/02 08:25:50;;;;;;;;;;;17.90;77.60;;;;;;5127433;27;19918;-86
2023/05/02 08:28:17;;;;;;;;;;;17.90;77.60;;;;;;5110068;27;19907;-87
2023/05/02 08:30:44;;;;;;;;;;;17.90;77.60;;;;;;5105287;28;20112;-85
2023/05/02 08:33:09;;;;;;;;;;;17.90;77.50;;;;;;5107143;28;19907;-85
2023/05/02 08:35:35;;;;;;;;;;;17.90;77.50;;;;;;5108823;28;19956;-86
2023/05/02 08:38:03;;;;;;;;;;;17.90;77.50;;;;;;5108881;28;19908;-86
2023/05/02 08:40:34;;;;;;;;;;;17.90;77.60;;;;;;5126817;28;19980;-85
2023/05/02 08:43:00;;;;;;;;;;;17.90;77.60;;;;;;5105822;28;19970;-85
2023/05/02 08:45:25;;;;;;;;;;;17.80;77.50;;;;;;5108194;28;20499;-86
2023/05/02 08:47:51;;;;;;;;;;;17.90;77.50;;;;;;5107538;28;19911;-86
2023/05/02 08:50:18;;;;;;;;;;;17.90;77.50;;;;;;5123940;28;19908;-86
2023/05/02 08:52:47;;;;;;;;;;;17.90;77.50;;;;;;5106285;28;20031;-88
2023/05/02 08:55:13;;;;;;;;;;;17.90;77.40;;;;;;5108136;28;20454;-85
2023/05/02 08:57:39;;;;;;;;;;;17.90;77.50;;;;;;5128864;28;20038;-87
2023/05/02 09:00:06;;;;;;;;;;;17.90;77.40;;;;;;5125648;28;19934;-87
2023/05/02 09:02:44;;;;;;;;;;;17.90;77.40;;;;;;5107780;28;19919;-87
2023/05/02 09:05:11;;;;;;;;;;;17.90;77.40;;;;;;5108923;28;20241;-87
2023/05/02 09:07:46;;;;;;;;;;;17.90;77.40;;;;;;5111803;28;19918;-87
2023/05/02 09:10:12;;;;;;;;;;;17.90;77.40;;;;;;5110943;28;19915;-87
2023/05/02 09:12:38;;;;;;;;;;;17.90;77.50;;;;;;5109595;27;19993;-87
2023/05/02 09:15:14;;;;;;;;;;;17.90;77.40;;;;;;5111159;27;20006;-87
2023/05/02 09:17:44;;;;;;;;;;;17.90;77.40;;;;;;5109347;27;19913;-87
2023/05/02 09:20:14;;;;;;;;;;;17.90;77.30;;;;;;5111559;27;19908;-87
2023/05/02 09:22:49;;;;;;;;;;;17.90;77.30;;;;;;5128594;27;19915;-86
2023/05/02 09:25:15;;;;;;;;;;;17.90;77.20;;;;;;5112545;27;19962;-87
2023/05/02 09:27:48;;;;;;;;;;;17.90;77.10;;;;;;5120290;27;20119;-87
2023/05/02 09:30:18;;;;;;;;;;;17.90;77.00;;;;;;5112696;27;19916;-87
2023/05/02 09:32:43;;;;;;;;;;;18.00;77.00;;;;;;5109788;27;19927;-87
2023/05/02 09:35:09;;;;;;;;;;;18.00;76.90;;;;;;5108344;27;19919;-87
2023/05/02 09:37:35;;;;;;;;;;;18.00;76.80;;;;;;5108541;27;20090;-86
2023/05/02 09:40:06;;;;;;;;;;;18.00;76.60;;;;;;5111311;27;19918;-86
2023/05/02 09:42:31;;;;;;;;;;;18.00;76.50;;;;;;5095701;28;20052;-86
2023/05/02 09:44:57;;;;;;;;;;;18.00;76.60;;;;;;5088114;28;20177;-87
2023/05/02 09:47:26;;;;;;;;;;;18.00;76.70;;;;;;5090959;28;19915;-87
2023/05/02 09:49:51;;;;;;;;;;;18.00;76.80;;;;;;5088225;28;19943;-87
2023/05/02 09:52:21;;;;;;;;;;;18.00;77.00;;;;;;5106543;28;20020;-87
2023/05/02 09:54:49;;;;;;;;;;;17.90;77.00;;;;;;5108638;28;20033;-87
2023/05/02 09:57:15;;;;;;;;;;;17.90;77.10;;;;;;5089968;28;19915;-87
2023/05/02 09:59:41;;;;;;;;;;;17.90;77.00;;;;;;5089985;28;19915;-87
2023/05/02 10:02:08;;;;;;;;;;;17.90;77.10;;;;;;5090168;28;19912;-86
2023/05/02 10:04:34;;;;;;;;;;;17.90;77.10;;;;;;5109831;28;20207;-87
2023/05/02 10:07:01;;;;;;;;;;;17.90;77.10;;;;;;5104782;28;19919;-87
2023/05/02 10:09:28;;;;;;;;;;;18.00;77.10;;;;;;5086666;28;19912;-86
2023/05/02 10:11:57;;;;;;;;;;;18.00;77.20;;;;;;5087256;28;20208;-87
2023/05/02 10:14:24;;;;;;;;;;;18.00;77.10;;;;;;5121295;27;20185;-87
2023/05/02 10:17:01;;;;;;;;;;;18.00;77.10;;;;;;5086480;28;19907;-87
2023/05/02 10:19:32;;;;;;;;;;;18.00;76.90;;;;;;5085908;28;19908;-86
2023/05/02 10:21:59;;;;;;;;;;;18.10;81.50;;;;;;5087592;28;20068;-87
2023/05/02 10:24:27;;;;;;;;;;;18.10;79.60;;;;;;5103900;28;20213;-89
2023/05/02 10:27:03;;;;;;;;;;;18.10;78.10;;;;;;5107429;28;20373;-86
2023/05/02 10:29:30;;;;;;;;;;;18.20;78.70;;;;;;5089113;28;19908;-86
2023/05/02 10:31:56;;;;;;;;;;;18.20;78.50;;;;;;5087782;28;19965;-86
2023/05/02 10:34:22;;;;;;;;;;;18.20;78.30;;;;;;5122194;27;19968;-86
2023/05/02 10:36:48;;;;;;;;;;;18.20;78.00;;;;;;5119978;27;19908;-85
2023/05/02 10:39:13;;;;;;;;;;;18.20;77.60;;;;;;5087206;28;19919;-85
2023/05/02 10:41:39;;;;;;;;;;;18.20;77.50;;;;;;5085563;28;20065;-85
2023/05/02 10:44:07;;;;;;;;;;;18.30;77.20;;;;;;5104981;28;19976;-85
2023/05/02 10:46:37;;;;;;;;;;;18.30;77.10;;;;;;5086766;28;20285;-86
2023/05/02 10:49:02;;;;;;;;;;;18.30;76.90;;;;;;5104161;28;20349;-86
2023/05/02 10:51:30;;;;;;;;;;;18.30;77.30;;;;;;5104020;28;19929;-86
2023/05/02 10:54:17;;;;;;;;;;;18.30;76.30;;;;;;5088485;28;20264;-86
2023/05/02 10:56:58;;;;;;;;;;;18.40;76.00;;;;;;5087621;28;20363;-85
2023/05/02 10:59:28;;;;;;;;;;;18.40;75.70;;;;;;5088528;28;19923;-86
2023/05/02 11:01:54;;;;;;;;;;;18.50;75.10;;;;;;5085923;28;19911;-85
2023/05/02 11:04:19;;;;;;;;;;;18.50;74.60;;;;;;5087501;28;20095;-86
2023/05/02 11:07:00;;;;;;;;;;;18.60;74.20;;;;;;5086198;28;20178;-86
2023/05/02 11:09:26;;;;;;;;;;;18.60;73.80;;;;;;5086469;28;20093;-86
2023/05/02 11:11:53;;;;;;;;;;;18.80;73.20;;;;;;5084743;28;19960;-86
2023/05/02 11:14:25;;;;;;;;;;;18.80;72.70;;;;;;5085729;28;19908;-86
2023/05/02 11:16:59;;;;;;;;;;;18.90;72.20;;;;;;5087690;28;19935;-86
2023/05/02 11:19:26;;;;;;;;;;;19.00;71.80;;;;;;5086250;28;19912;-86
2023/05/02 11:21:52;;;;;;;;;;;19.00;71.60;;;;;;5086124;28;20209;-86
2023/05/02 11:24:36;;;;;;;;;;;19.00;71.60;;;;;;5086078;28;19908;-85
2023/05/02 11:27:21;;;;;;;;;;;19.10;71.50;;;;;;5085261;28;20136;-85
2023/05/02 11:29:56;;;;;;;;;;;19.10;71.30;;;;;;5083314;28;19953;-86
2023/05/02 11:32:22;;;;;;;;;;;19.00;71.20;;;;;;5085092;28;20072;-86
2023/05/02 11:34:51;;;;;;;;;;;19.00;71.20;;;;;;5084033;28;19907;-85
2023/05/02 11:37:17;;;;;;;;;;;19.00;71.00;;;;;;5083416;28;20060;-86
2023/05/02 11:39:44;;;;;;;;;;;19.00;70.90;;;;;;5081986;28;20252;-86
2023/05/02 11:42:10;;;;;;;;;;;19.00;70.90;;;;;;5101759;28;19927;-86
2023/05/02 11:44:56;;;;;;;;;;;19.00;70.80;;;;;;5082736;28;20060;-85
2023/05/02 11:47:22;;;;;;;;;;;18.90;70.70;;;;;;5082406;28;20307;-85
2023/05/02 11:49:48;;;;;;;;;;;18.90;70.50;;;;;;5084791;28;19907;-85
2023/05/02 11:52:14;;;;;;;;;;;19.00;70.50;;;;;;5083162;28;19908;-85
2023/05/02 11:54:40;;;;;;;;;;;19.00;70.30;;;;;;5083755;28;20299;-85
2023/05/02 11:57:06;;;;;;;;;;;19.00;70.10;;;;;;5083788;28;19991;-85
2023/05/02 11:59:47;;;;;;;;;;;19.00;69.80;;;;;;5081586;28;19999;-85
2023/05/02 12:02:16;;;;;;;;;;;19.00;69.60;;;;;;5083651;28;20335;-85
2023/05/02 12:04:43;;;;;;;;;;;19.00;69.40;;;;;;5084193;28;20079;-85
2023/05/02 12:07:11;;;;;;;;;;;19.00;69.20;;;;;;5085267;28;20371;-85
2023/05/02 12:09:53;;;;;;;;;;;19.10;69.10;;;;;;5103502;28;20006;-86
2023/05/02 12:12:19;;;;;;;;;;;19.10;69.00;;;;;;5083101;28;19966;-85
2023/05/02 12:14:45;;;;;;;;;;;19.10;68.60;;;;;;5079668;28;20164;-86
2023/05/02 12:17:10;;;;;;;;;;;19.20;68.30;;;;;;5100336;28;19912;-85
2023/05/02 12:19:36;;;;;;;;;;;19.20;67.80;;;;;;5099888;28;19962;-86
2023/05/02 12:22:02;;;;;;;;;;;19.30;67.50;;;;;;5080922;28;19927;-85
2023/05/02 12:24:32;;;;;;;;;;;19.30;67.00;;;;;;5101512;28;19942;-85
2023/05/02 12:27:10;;;;;;;;;;;19.40;66.70;;;;;;5083926;28;20197;-85
2023/05/02 12:29:37;;;;;;;;;;;19.40;66.30;;;;;;5084158;28;20463;-85
2023/05/02 12:32:02;;;;;;;;;;;19.50;65.90;;;;;;5085942;28;20095;-86
2023/05/02 12:34:35;;;;;;;;;;;19.60;65.60;;;;;;5084333;28;19908;-85
2023/05/02 12:37:02;;;;;;;;;;;19.50;65.20;;;;;;5103455;28;20069;-85
2023/05/02 12:39:34;;;;;;;;;;;19.60;65.00;;;;;;5083356;28;19908;-86
2023/05/02 12:42:07;;;;;;;;;;;19.60;64.90;;;;;;5101425;28;20018;-85
2023/05/02 12:44:37;;;;;;;;;;;19.60;64.80;;;;;;5083594;28;20127;-85
2023/05/02 12:47:03;;;;;;;;;;;19.60;64.60;;;;;;5083536;28;20147;-85
2023/05/02 12:49:29;;;;;;;;;;;19.60;64.40;;;;;;5089948;28;20343;-85
2023/05/02 12:51:57;;;;;;;;;;;19.60;64.20;;;;;;5090390;28;19974;-85
2023/05/02 12:54:22;;;;;;;;;;;19.70;64.20;;;;;;5088837;28;19908;-85
2023/05/02 12:56:50;;;;;;;;;;;19.70;64.10;;;;;;5105957;28;20201;-85
2023/05/02 12:59:31;;;;;;;;;;;19.70;64.00;;;;;;5087283;28;19916;-85
2023/05/02 13:01:57;;;;;;;;;;;19.70;63.90;;;;;;5088568;28;19938;-86
2023/05/02 13:04:40;;;;;;;;;;;19.70;64.20;;;;;;5088052;28;20223;-85
2023/05/02 13:07:06;;;;;;;;;;;19.70;63.40;;;;;;5089508;28;19915;-85
2023/05/02 13:09:31;;;;;;;;;;;19.80;63.50;;;;;;5092050;28;20190;-86
2023/05/02 13:12:02;;;;;;;;;;;19.80;63.50;;;;;;5089997;28;19955;-85
2023/05/02 13:14:28;;;;;;;;;;;19.80;63.40;;;;;;5110073;28;19908;-85
2023/05/02 13:16:54;;;;;;;;;;;19.80;63.30;;;;;;5090610;28;20453;-85
2023/05/02 13:19:20;;;;;;;;;;;19.80;63.30;;;;;;5108111;28;19973;-85
2023/05/02 13:21:46;;;;;;;;;;;19.80;63.20;;;;;;5089991;28;19927;-85
2023/05/02 13:24:12;;;;;;;;;;;19.90;63.00;;;;;;5089573;28;20223;-85
2023/05/02 13:26:37;;;;;;;;;;;19.90;62.80;;;;;;5088901;28;20381;-86
2023/05/02 13:29:08;;;;;;;;;;;19.90;62.80;;;;;;5088945;28;19908;-86
2023/05/02 13:31:34;;;;;;;;;;;19.90;63.00;;;;;;5087578;28;19908;-85
2023/05/02 13:33:59;;;;;;;;;;;19.90;63.10;;;;;;5087122;28;19919;-86
2023/05/02 13:36:27;;;;;;;;;;;19.80;63.10;;;;;;5087410;28;20292;-85
2023/05/02 13:38:53;;;;;;;;;;;19.80;63.20;;;;;;5085077;28;19959;-85
2023/05/02 13:41:18;;;;;;;;;;;19.80;63.10;;;;;;5087454;28;19958;-85
2023/05/02 13:43:47;;;;;;;;;;;19.80;63.20;;;;;;5089464;28;20047;-86
2023/05/02 13:46:12;;;;;;;;;;;19.80;63.30;;;;;;5087520;28;20289;-86
2023/05/02 13:48:38;;;;;;;;;;;19.70;63.20;;;;;;5087539;28;19968;-85
2023/05/02 13:51:03;;;;;;;;;;;19.70;63.20;;;;;;5085883;28;19919;-86
2023/05/02 13:53:29;;;;;;;;;;;19.70;63.20;;;;;;5088089;28;20274;-85
2023/05/02 13:55:55;;;;;;;;;;;19.70;63.20;;;;;;5087499;28;19958;-85
2023/05/02 13:58:22;;;;;;;;;;;19.70;63.20;;;;;;5106230;28;20277;-85
2023/05/02 14:00:48;;;;;;;;;;;19.60;63.10;;;;;;5089337;28;19939;-86
2023/05/02 14:03:13;;;;;;;;;;;19.60;62.90;;;;;;5087573;28;20014;-85
2023/05/02 14:05:42;;;;;;;;;;;19.60;63.40;;;;;;5105723;28;20003;-85
2023/05/02 14:08:11;;;;;;;;;;;19.60;63.30;;;;;;5088763;28;19968;-85
2023/05/02 14:10:37;;;;;;;;;;;19.60;63.50;;;;;;5105807;28;19951;-85
2023/05/02 14:13:06;;;;;;;;;;;19.50;63.50;;;;;;5085161;28;20249;-85
2023/05/02 14:15:31;;;;;;;;;;;19.50;63.90;;;;;;5087189;28;19923;-85
2023/05/02 14:17:58;;;;;;;;;;;19.50;63.90;;;;;;5087984;28;19912;-86
2023/05/02 14:20:23;;;;;;;;;;;19.50;64.50;;;;;;5089521;28;19908;-86
2023/05/02 14:22:52;;;;;;;;;;;19.40;63.70;;;;;;5088538;28;19916;-87
2023/05/02 14:25:19;;;;;;;;;;;19.40;63.90;;;;;;5087936;28;19908;-87